createdAt,value
2023-04-07T00:01:30.494Z,9.23
2023-04-07T00:03:58.762Z,10.57
2023-04-07T00:06:27.484Z,5.40
2023-04-07T00:08:55.606Z,7.10
2023-04-07T00:11:23.433Z,6.00
2023-04-07T00:13:51.653Z,5.33
2023-04-07T00:16:21.033Z,6.23
2023-04-07T00:18:48.949Z,8.30
2023-04-07T00:21:16.788Z,6.93
2023-04-07T00:23:44.988Z,6.00
2023-04-07T00:26:12.889Z,6.07
2023-04-07T00:28:40.795Z,6.93
2023-04-07T00:31:08.713Z,5.43
2023-04-07T00:33:37.883Z,5.27
2023-04-07T00:36:06.572Z,5.50
2023-04-07T00:38:34.491Z,5.50
2023-04-07T00:41:02.618Z,5.10
2023-04-07T00:43:30.492Z,7.03
2023-04-07T00:45:58.465Z,5.57
2023-04-07T00:48:26.580Z,6.37
2023-04-07T00:50:55.878Z,6.07
2023-04-07T00:53:23.823Z,6.33
2023-04-07T00:55:51.928Z,6.83
2023-04-07T00:58:19.765Z,7.03
2023-04-07T01:00:52.823Z,4.83
2023-04-07T01:03:31.643Z,4.67
2023-04-07T01:06:02.773Z,4.77
2023-04-07T01:08:39.407Z,4.93
2023-04-07T01:11:13.066Z,4.40
2023-04-07T01:13:47.119Z,5.37
2023-04-07T01:16:21.194Z,4.63
2023-04-07T01:18:53.237Z,5.33
2023-04-07T01:21:27.203Z,4.50
2023-04-07T01:24:06.602Z,4.37
2023-04-07T01:26:35.198Z,5.37
2023-04-07T01:29:24.971Z,4.27
2023-04-07T01:31:55.677Z,4.07
2023-04-07T01:34:26.738Z,6.57
2023-04-07T01:36:56.652Z,4.40
2023-04-07T01:39:25.267Z,4.23
2023-04-07T01:41:54.648Z,4.30
2023-04-07T01:44:24.817Z,4.47
2023-04-07T01:46:52.907Z,4.60
2023-04-07T01:49:21.297Z,4.10
2023-04-07T01:51:50.608Z,4.57
2023-04-07T01:54:19.240Z,5.37
2023-04-07T01:56:47.104Z,4.20
2023-04-07T01:59:15.144Z,4.10
2023-04-07T02:01:44.573Z,4.77
2023-04-07T02:04:15.714Z,3.23
2023-04-07T02:06:49.070Z,4.70
2023-04-07T02:09:17.909Z,2.93
2023-04-07T02:11:47.063Z,5.93
2023-04-07T02:14:17.697Z,4.40
2023-04-07T02:16:49.027Z,5.30
2023-04-07T02:19:17.227Z,4.67
2023-04-07T02:21:46.688Z,6.10
2023-04-07T02:24:14.534Z,4.23
2023-04-07T02:26:44.173Z,4.80
2023-04-07T02:29:12.053Z,4.80
2023-04-07T02:31:40.019Z,4.90
2023-04-07T02:34:09.292Z,5.43
2023-04-07T02:36:37.177Z,6.27
2023-04-07T02:39:05.172Z,5.90
2023-04-07T02:41:33.017Z,7.37
2023-04-07T02:44:00.906Z,8.07
2023-04-07T02:46:28.852Z,10.70
2023-04-07T02:48:56.778Z,8.40
2023-04-07T02:51:27.070Z,9.00
2023-04-07T02:53:55.127Z,6.13
2023-04-07T02:56:23.091Z,6.37
2023-04-07T02:58:50.960Z,7.20
2023-04-07T03:01:18.925Z,6.50
2023-04-07T03:03:47.826Z,6.00
2023-04-07T03:06:15.968Z,4.63
2023-04-07T03:08:45.167Z,7.90
2023-04-07T03:11:13.032Z,7.37
2023-04-07T03:13:41.246Z,7.77
2023-04-07T03:16:09.294Z,8.93
2023-04-07T03:18:37.124Z,9.57
2023-04-07T03:21:05.062Z,7.73
2023-04-07T03:23:32.927Z,7.40
2023-04-07T03:26:02.115Z,6.50
2023-04-07T03:28:29.952Z,8.37
2023-04-07T03:30:57.854Z,7.07
2023-04-07T03:33:25.744Z,7.00
2023-04-07T03:35:53.606Z,6.97
2023-04-07T03:38:21.521Z,7.00
2023-04-07T03:40:49.358Z,9.07
2023-04-07T03:43:18.596Z,6.30
2023-04-07T03:45:46.534Z,7.47
2023-04-07T03:48:14.485Z,8.23
2023-04-07T03:50:42.826Z,8.33
2023-04-07T03:53:10.837Z,7.87
2023-04-07T03:55:39.277Z,9.63
2023-04-07T03:58:07.290Z,8.50
2023-04-07T04:00:36.712Z,10.27
2023-04-07T04:03:04.980Z,8.43
2023-04-07T04:05:32.923Z,8.97
2023-04-07T04:08:00.835Z,8.30
2023-04-07T04:10:28.706Z,9.70
2023-04-07T04:12:56.952Z,8.40
2023-04-07T04:15:24.946Z,8.77
2023-04-07T04:17:54.280Z,12.13
2023-04-07T04:20:22.699Z,11.90
2023-04-07T04:22:50.630Z,9.60
2023-04-07T04:25:18.575Z,10.50
2023-04-07T04:27:46.448Z,15.23
2023-04-07T04:30:14.629Z,8.70
2023-04-07T04:32:42.549Z,11.00
2023-04-07T04:35:12.068Z,12.93
2023-04-07T04:37:39.951Z,12.50
2023-04-07T04:40:09.473Z,10.20
2023-04-07T04:42:37.391Z,9.07
2023-04-07T04:45:06.062Z,9.47
2023-04-07T04:47:33.991Z,11.27
2023-04-07T04:50:02.093Z,9.60
2023-04-07T04:52:31.574Z,11.97
2023-04-07T04:54:59.646Z,11.07
2023-04-07T04:57:27.516Z,10.47
2023-04-07T04:59:55.758Z,13.93
2023-04-07T05:02:24.283Z,15.67
2023-04-07T05:04:52.320Z,13.10
2023-04-07T05:07:20.291Z,13.33
2023-04-07T05:09:49.681Z,12.00
2023-04-07T05:12:17.765Z,12.90
2023-04-07T05:14:45.933Z,13.40
2023-04-07T05:17:13.827Z,11.67
2023-04-07T05:19:42.048Z,10.70
2023-04-07T05:22:09.938Z,10.43
2023-04-07T05:24:37.793Z,12.90
2023-04-07T05:27:07.159Z,10.03
2023-04-07T05:29:35.046Z,11.00
2023-04-07T05:32:02.957Z,11.20
2023-04-07T05:34:31.338Z,10.13
2023-04-07T05:36:59.407Z,13.33
2023-04-07T05:39:27.265Z,12.20
2023-04-07T05:41:55.175Z,11.83
2023-04-07T05:44:24.453Z,12.37
2023-04-07T05:46:52.325Z,14.67
2023-04-07T05:49:20.779Z,15.77
2023-04-07T05:51:49.303Z,9.77
2023-04-07T05:54:17.445Z,13.17
2023-04-07T05:56:45.487Z,15.07
2023-04-07T05:59:13.453Z,15.13
2023-04-07T06:01:43.742Z,15.33
2023-04-07T06:04:11.746Z,18.17
2023-04-07T06:06:39.627Z,19.10
2023-04-07T06:09:08.280Z,23.23
2023-04-07T06:11:36.820Z,20.03
2023-04-07T06:14:04.817Z,22.27
2023-04-07T06:16:32.723Z,21.00
2023-04-07T06:19:02.691Z,21.80
2023-04-07T06:21:30.653Z,22.10
2023-04-07T06:23:58.502Z,22.43
2023-04-07T06:26:27.193Z,20.70
2023-04-07T06:28:55.276Z,19.73
2023-04-07T06:31:23.108Z,21.47
2023-04-07T06:33:51.366Z,18.00
2023-04-07T06:36:21.704Z,20.20
2023-04-07T06:38:49.752Z,19.97
2023-04-07T06:41:17.811Z,18.70
2023-04-07T06:43:47.952Z,18.60
2023-04-07T06:46:16.356Z,19.70
2023-04-07T06:48:44.346Z,18.77
2023-04-07T06:51:12.250Z,21.03
2023-04-07T06:53:42.006Z,19.10
2023-04-07T06:56:11.574Z,19.20
2023-04-07T06:58:39.717Z,17.80
2023-04-07T07:01:07.986Z,17.13
2023-04-07T07:03:36.161Z,16.30
2023-04-07T07:06:04.467Z,15.67
2023-04-07T07:08:32.729Z,19.50
2023-04-07T07:11:02.038Z,14.97
2023-04-07T07:13:29.932Z,20.30
2023-04-07T07:15:57.851Z,20.40
2023-04-07T07:18:25.738Z,16.73
2023-04-07T07:20:53.576Z,15.67
2023-04-07T07:23:21.812Z,20.80
2023-04-07T07:25:49.732Z,17.57
2023-04-07T07:28:19.504Z,20.03
2023-04-07T07:30:47.346Z,18.07
2023-04-07T07:33:15.447Z,20.73
2023-04-07T07:35:43.485Z,18.57
2023-04-07T07:38:12.364Z,19.70
2023-04-07T07:40:40.305Z,17.20
2023-04-07T07:43:08.201Z,21.77
2023-04-07T07:45:37.488Z,20.37
2023-04-07T07:48:05.314Z,18.13
2023-04-07T07:50:33.207Z,19.93
2023-04-07T07:53:01.359Z,22.30
2023-04-07T07:55:29.309Z,17.13
2023-04-07T07:57:57.172Z,20.03
2023-04-07T08:00:25.105Z,22.93
2023-04-07T08:02:54.431Z,21.33
2023-04-07T08:05:22.416Z,23.83
2023-04-07T08:07:52.152Z,22.30
2023-04-07T08:10:21.876Z,19.77
2023-04-07T08:12:49.790Z,22.30
2023-04-07T08:15:17.729Z,21.33
2023-04-07T08:17:45.637Z,21.23
2023-04-07T08:20:15.131Z,19.73
2023-04-07T08:22:43.676Z,19.43
2023-04-07T08:25:11.731Z,23.43
2023-04-07T08:27:39.870Z,21.87
2023-04-07T08:30:08.767Z,23.07
2023-04-07T08:32:37.930Z,23.43
2023-04-07T08:35:06.475Z,21.87
2023-04-07T08:37:36.697Z,19.60
2023-04-07T08:40:05.903Z,20.20
2023-04-07T08:42:41.270Z,17.33
2023-04-07T08:45:10.666Z,24.00
2023-04-07T08:47:41.538Z,21.77
2023-04-07T08:50:11.417Z,20.60
2023-04-07T08:52:46.120Z,25.43
2023-04-07T08:55:14.405Z,19.57
2023-04-07T08:57:44.285Z,20.47
2023-04-07T09:00:13.755Z,17.90
2023-04-07T09:02:44.488Z,15.60
2023-04-07T09:05:14.558Z,20.03
2023-04-07T09:07:44.289Z,19.80
2023-04-07T09:10:12.872Z,15.83
2023-04-07T09:12:41.176Z,22.73
2023-04-07T09:15:09.913Z,17.43
2023-04-07T09:17:37.925Z,19.90
2023-04-07T09:20:06.629Z,18.27
2023-04-07T09:22:39.114Z,20.33
2023-04-07T09:25:16.941Z,15.97
2023-04-07T09:28:06.217Z,19.23
2023-04-07T09:30:35.190Z,19.47
2023-04-07T09:33:03.453Z,20.53
2023-04-07T09:35:31.604Z,15.80
2023-04-07T09:38:04.213Z,16.53
2023-04-07T09:40:33.892Z,17.17
2023-04-07T09:43:05.040Z,16.07
2023-04-07T09:45:36.962Z,18.57
2023-04-07T09:48:09.555Z,16.30
2023-04-07T09:50:41.271Z,17.57
2023-04-07T09:53:09.461Z,15.10
2023-04-07T09:55:40.664Z,14.87
2023-04-07T09:58:09.124Z,13.80
2023-04-07T10:00:37.384Z,14.47
2023-04-07T10:03:05.891Z,16.83
2023-04-07T10:05:35.397Z,12.40
2023-04-07T10:08:03.732Z,16.80
2023-04-07T10:10:32.222Z,18.00
2023-04-07T10:13:02.606Z,19.07
2023-04-07T10:15:31.950Z,17.43
2023-04-07T10:18:00.895Z,16.60
2023-04-07T10:20:30.231Z,14.63
2023-04-07T10:23:14.259Z,15.80
2023-04-07T10:25:42.591Z,16.63
2023-04-07T10:28:13.971Z,19.20
2023-04-07T10:30:42.377Z,17.80
2023-04-07T10:33:10.501Z,17.33
2023-04-07T10:36:06.095Z,13.93
2023-04-07T10:38:34.065Z,17.57
2023-04-07T10:41:01.957Z,17.37
2023-04-07T10:43:44.223Z,16.93
2023-04-07T10:46:12.232Z,16.10
2023-04-07T10:48:40.112Z,16.03
2023-04-07T10:51:19.032Z,14.13
2023-04-07T10:54:16.671Z,13.47
2023-04-07T10:57:07.902Z,12.43
2023-04-07T10:59:37.961Z,10.77
2023-04-07T11:02:36.217Z,17.60
2023-04-07T11:05:04.981Z,17.07
2023-04-07T11:07:55.098Z,15.47
2023-04-07T11:10:23.366Z,16.20
2023-04-07T11:13:06.246Z,12.63
2023-04-07T11:15:39.406Z,16.70
2023-04-07T11:18:13.703Z,14.97
2023-04-07T11:20:47.309Z,13.70
2023-04-07T11:23:16.441Z,11.67
2023-04-07T11:25:46.160Z,10.10
2023-04-07T11:28:14.846Z,8.97
2023-04-07T11:30:52.732Z,8.63
2023-04-07T11:33:22.175Z,9.57
2023-04-07T11:35:56.734Z,8.97
2023-04-07T11:38:27.274Z,9.57
2023-04-07T11:40:55.993Z,7.93
2023-04-07T11:43:25.180Z,11.40
2023-04-07T11:46:08.790Z,9.00
2023-04-07T11:48:38.189Z,9.57
2023-04-07T11:51:07.868Z,10.30
2023-04-07T11:53:38.220Z,13.80
2023-04-07T11:56:10.142Z,10.03
2023-04-07T11:58:38.683Z,12.33
2023-04-07T12:01:09.466Z,9.27
2023-04-07T12:03:38.355Z,11.27
2023-04-07T12:06:07.130Z,9.70
2023-04-07T12:08:43.192Z,9.90
2023-04-07T12:11:12.290Z,8.53
2023-04-07T12:13:41.413Z,8.00
2023-04-07T12:16:10.867Z,7.03
2023-04-07T12:18:38.781Z,13.30
2023-04-07T12:21:06.728Z,12.07
2023-04-07T12:23:34.588Z,11.37
2023-04-07T12:26:02.463Z,11.23
2023-04-07T12:28:30.564Z,8.23
2023-04-07T12:30:58.926Z,7.30
2023-04-07T12:33:28.254Z,7.60
2023-04-07T12:35:56.215Z,7.30
2023-04-07T12:38:24.122Z,12.67
2023-04-07T12:40:52.027Z,10.00
2023-04-07T12:43:19.920Z,7.53
2023-04-07T12:45:48.198Z,10.23
2023-04-07T12:48:16.682Z,10.37
2023-04-07T12:50:46.127Z,12.80
2023-04-07T12:53:14.068Z,12.10
2023-04-07T12:55:42.094Z,11.00
2023-04-07T12:58:10.214Z,9.60
2023-04-07T13:00:38.070Z,11.17
2023-04-07T13:03:06.008Z,10.50
2023-04-07T13:05:34.396Z,10.43
2023-04-07T13:08:03.709Z,11.60
2023-04-07T13:10:31.665Z,13.13
2023-04-07T13:12:59.500Z,10.40
2023-04-07T13:15:28.213Z,12.50
2023-04-07T13:17:56.335Z,11.50
2023-04-07T13:20:27.930Z,10.73
2023-04-07T13:25:30.051Z,7.73
2023-04-07T13:27:57.935Z,8.80
2023-04-07T13:30:25.812Z,9.47
2023-04-07T13:32:54.160Z,7.93
2023-04-07T13:35:22.250Z,7.63
2023-04-07T13:37:50.405Z,10.40
2023-04-07T13:40:18.490Z,8.20
2023-04-07T13:42:47.688Z,12.97
2023-04-07T13:45:15.800Z,8.80
2023-04-07T13:47:43.725Z,9.63
2023-04-07T13:50:11.919Z,9.07
2023-04-07T13:52:39.830Z,10.50
2023-04-07T13:55:08.663Z,9.03
2023-04-07T13:57:36.533Z,7.53
2023-04-07T14:00:07.357Z,6.73
2023-04-07T14:02:35.597Z,5.23
2023-04-07T14:05:03.627Z,4.73
2023-04-07T14:07:31.511Z,5.17
2023-04-07T14:09:59.538Z,4.97
2023-04-07T14:12:27.476Z,5.40
2023-04-07T14:14:56.611Z,6.27
2023-04-07T14:17:26.050Z,7.33
2023-04-07T14:19:54.032Z,6.57
2023-04-07T14:22:21.931Z,3.90
2023-04-07T14:24:49.801Z,5.93
2023-04-07T14:27:21.058Z,3.70
2023-04-07T14:29:49.242Z,5.60
2023-04-07T14:32:17.337Z,4.60
2023-04-07T14:34:46.577Z,4.50
2023-04-07T14:37:16.162Z,3.67
2023-04-07T14:39:51.781Z,4.90
2023-04-07T14:42:30.686Z,4.27
2023-04-07T14:44:58.712Z,9.53
2023-04-07T14:47:27.683Z,4.90
2023-04-07T14:49:57.041Z,4.47
2023-04-07T14:52:25.921Z,4.60
2023-04-07T14:54:53.789Z,4.37
2023-04-07T14:57:22.326Z,4.30
2023-04-07T14:59:50.313Z,5.07
2023-04-07T15:02:18.230Z,3.90
2023-04-07T15:04:46.324Z,4.90
2023-04-07T15:07:15.694Z,3.33
2023-04-07T15:09:43.618Z,4.80
2023-04-07T15:12:11.487Z,4.47
2023-04-07T15:14:40.175Z,4.10
2023-04-07T15:17:08.023Z,4.67
2023-04-07T15:19:35.904Z,3.17
2023-04-07T15:22:03.828Z,3.10
2023-04-07T15:24:33.037Z,4.90
2023-04-07T15:27:00.886Z,6.23
2023-04-07T15:29:28.803Z,3.60
2023-04-07T15:31:56.886Z,3.50
2023-04-07T15:34:24.804Z,3.60
2023-04-07T15:36:52.644Z,5.87
2023-04-07T15:39:20.514Z,5.33
2023-04-07T15:41:49.686Z,5.23
2023-04-07T15:44:19.627Z,5.43
2023-04-07T15:46:47.714Z,4.77
2023-04-07T15:49:20.081Z,6.97
2023-04-07T15:51:47.954Z,4.83
2023-04-07T15:54:16.164Z,4.67
2023-04-07T15:56:44.031Z,5.03
2023-04-07T15:59:13.636Z,3.90
2023-04-07T16:01:41.664Z,5.07
2023-04-07T16:04:09.711Z,4.60
2023-04-07T16:06:37.644Z,4.20
2023-04-07T16:09:05.704Z,5.10
2023-04-07T16:11:33.549Z,5.37
2023-04-07T16:14:01.417Z,5.00
2023-04-07T16:16:35.890Z,5.10
2023-04-07T16:19:03.791Z,5.60
2023-04-07T16:21:31.729Z,7.10
2023-04-07T16:23:59.591Z,6.03
2023-04-07T16:26:27.464Z,5.20
2023-04-07T16:28:55.295Z,5.47
2023-04-07T16:31:23.196Z,5.50
2023-04-07T16:33:52.643Z,4.83
2023-04-07T16:36:20.703Z,5.43
2023-04-07T16:38:49.726Z,5.90
2023-04-07T16:41:17.603Z,6.03
2023-04-07T16:43:45.651Z,4.83
2023-04-07T16:46:13.591Z,6.33
2023-04-07T16:48:41.627Z,5.67
2023-04-07T16:51:10.797Z,4.40
2023-04-07T16:53:38.641Z,6.00
2023-04-07T16:56:06.797Z,7.30
2023-04-07T16:58:34.610Z,5.80
2023-04-07T17:01:02.504Z,6.77
2023-04-07T17:03:30.650Z,5.87
2023-04-07T17:06:04.355Z,5.60
2023-04-07T17:08:33.569Z,6.87
2023-04-07T17:11:01.887Z,6.63
2023-04-07T17:13:29.726Z,6.13
2023-04-07T17:15:57.672Z,6.77
2023-04-07T17:18:26.506Z,5.73
2023-04-07T17:20:54.338Z,4.53
2023-04-07T17:23:22.304Z,4.87
2023-04-07T17:25:51.784Z,3.10
2023-04-07T17:28:19.706Z,2.70
2023-04-07T17:30:47.629Z,2.43
2023-04-07T17:33:15.515Z,2.80
2023-04-07T17:35:43.402Z,2.10
2023-04-07T17:38:11.437Z,2.30
2023-04-07T17:40:39.337Z,2.67
2023-04-07T17:43:08.571Z,2.53
2023-04-07T17:45:36.891Z,2.10
2023-04-07T17:48:05.089Z,1.83
2023-04-07T17:50:33.001Z,2.20
2023-04-07T17:53:01.424Z,2.40
2023-04-07T17:55:29.334Z,2.27
2023-04-07T17:58:00.797Z,1.83
2023-04-07T18:00:30.540Z,2.10
2023-04-07T18:02:58.936Z,2.03
2023-04-07T18:05:30.752Z,1.90
2023-04-07T18:07:58.606Z,1.77
2023-04-07T18:10:27.976Z,2.20
2023-04-07T18:12:56.135Z,2.33
2023-04-07T18:15:23.987Z,2.20
2023-04-07T18:17:54.969Z,1.73
2023-04-07T18:20:22.976Z,1.97
2023-04-07T18:22:52.145Z,2.70
2023-04-07T18:25:20.089Z,2.00
2023-04-07T18:27:47.926Z,1.80
2023-04-07T18:30:16.281Z,2.00
2023-04-07T18:32:45.311Z,2.00
2023-04-07T18:35:14.575Z,2.37
2023-04-07T18:37:44.029Z,2.70
2023-04-07T18:40:12.924Z,2.23
2023-04-07T18:42:40.808Z,1.83
2023-04-07T18:45:09.613Z,2.63
2023-04-07T18:47:37.658Z,2.40
2023-04-07T18:50:06.793Z,2.40
2023-04-07T18:52:36.076Z,3.23
2023-04-07T18:55:04.014Z,3.00
2023-04-07T18:57:32.272Z,2.43
2023-04-07T19:00:00.145Z,3.00
2023-04-07T19:02:28.233Z,2.27
2023-04-07T19:04:56.433Z,2.10
2023-04-07T19:07:24.312Z,2.20
2023-04-07T19:09:53.916Z,1.93
2023-04-07T19:12:22.281Z,2.27
2023-04-07T19:14:50.214Z,2.80
2023-04-07T19:17:18.172Z,2.30
2023-04-07T19:19:46.066Z,2.40
2023-04-07T19:22:13.968Z,2.40
2023-04-07T19:24:42.028Z,2.63
2023-04-07T19:27:12.050Z,2.60
2023-04-07T19:29:40.005Z,2.43
2023-04-07T19:32:07.951Z,2.40
2023-04-07T19:34:36.189Z,2.70
2023-04-07T19:37:04.058Z,2.57
2023-04-07T19:39:32.076Z,2.80
2023-04-07T19:42:01.002Z,2.90
2023-04-07T19:44:30.636Z,2.97
2023-04-07T19:46:58.526Z,2.30
2023-04-07T19:49:26.631Z,2.83
2023-04-07T19:51:54.797Z,3.00
2023-04-07T19:54:23.167Z,3.03
2023-04-07T19:56:51.267Z,2.57
2023-04-07T19:59:19.122Z,3.27
2023-04-07T20:01:48.401Z,3.70
2023-04-07T20:04:16.419Z,3.87
2023-04-07T20:06:44.310Z,3.20
2023-04-07T20:09:12.159Z,3.90
2023-04-07T20:11:40.002Z,3.00
2023-04-07T20:14:07.868Z,2.83
2023-04-07T20:16:35.874Z,3.17
2023-04-07T20:19:05.299Z,3.10
2023-04-07T20:21:33.408Z,3.63
2023-04-07T20:24:01.279Z,2.40
2023-04-07T20:26:29.174Z,3.17
2023-04-07T20:28:57.216Z,3.60
2023-04-07T20:31:25.178Z,3.50
2023-04-07T20:33:53.122Z,3.50
2023-04-07T20:36:22.383Z,3.70
2023-04-07T20:38:50.401Z,3.03
2023-04-07T20:41:18.426Z,3.00
2023-04-07T20:43:46.420Z,3.60
2023-04-07T20:46:14.447Z,3.90
2023-04-07T20:48:42.392Z,4.30
2023-04-07T20:51:10.224Z,3.40
2023-04-07T20:53:39.417Z,4.07
2023-04-07T20:56:07.620Z,3.57
2023-04-07T20:58:36.109Z,3.60
2023-04-07T21:01:04.008Z,4.20
2023-04-07T21:03:32.064Z,5.07
2023-04-07T21:06:00.083Z,3.60
2023-04-07T21:08:28.008Z,3.13
2023-04-07T21:10:57.264Z,3.83
2023-04-07T21:13:27.192Z,3.60
2023-04-07T21:15:55.145Z,4.00
2023-04-07T21:18:23.087Z,5.70
2023-04-07T21:20:51.136Z,4.03
2023-04-07T21:23:19.430Z,4.40
2023-04-07T21:25:47.570Z,4.00
2023-04-07T21:28:16.831Z,4.30
2023-04-07T21:30:44.791Z,3.90
2023-04-07T21:33:13.608Z,3.90
2023-04-07T21:35:41.738Z,4.47
2023-04-07T21:38:09.597Z,5.00
2023-04-07T21:40:37.445Z,3.93
2023-04-07T21:43:05.420Z,4.40
2023-04-07T21:45:34.681Z,5.57
2023-04-07T21:48:03.415Z,3.97
2023-04-07T21:50:31.329Z,4.10
2023-04-07T21:52:59.220Z,4.20
2023-04-07T21:55:27.290Z,3.50
2023-04-07T21:57:55.174Z,5.57
2023-04-07T22:00:23.209Z,4.20
2023-04-07T22:02:52.627Z,4.60
2023-04-07T22:05:21.233Z,3.50
2023-04-07T22:07:49.270Z,4.90
2023-04-07T22:10:17.479Z,4.33
2023-04-07T22:12:45.635Z,5.70
2023-04-07T22:15:13.913Z,5.20
2023-04-07T22:17:41.896Z,5.00
2023-04-07T22:20:12.423Z,4.43
2023-04-07T22:22:40.579Z,4.07
2023-04-07T22:25:09.168Z,3.70
2023-04-07T22:27:37.042Z,3.80
2023-04-07T22:30:08.458Z,4.10
2023-04-07T22:32:36.414Z,3.70
2023-04-07T22:35:04.443Z,3.70
2023-04-07T22:37:33.720Z,4.20
2023-04-07T22:40:01.620Z,4.43
2023-04-07T22:42:29.502Z,4.80
2023-04-07T22:44:57.392Z,4.40
2023-04-07T22:47:25.207Z,5.07
2023-04-07T22:49:53.155Z,4.63
2023-04-07T22:52:21.011Z,5.23
2023-04-07T22:54:50.356Z,5.50
2023-04-07T22:57:18.246Z,6.17
2023-04-07T22:59:46.096Z,4.10
2023-04-07T23:02:14.051Z,5.00
2023-04-07T23:04:42.121Z,4.60
2023-04-07T23:07:10.017Z,4.70
2023-04-07T23:09:37.911Z,5.53
2023-04-07T23:12:07.103Z,5.43
2023-04-07T23:14:34.956Z,6.00
2023-04-07T23:17:03.046Z,4.60
2023-04-07T23:19:30.917Z,5.23
2023-04-07T23:21:58.740Z,6.40
2023-04-07T23:24:26.733Z,5.50
2023-04-07T23:26:54.584Z,4.70
2023-04-07T23:29:23.828Z,4.73
2023-04-07T23:31:52.652Z,4.40
2023-04-07T23:34:20.623Z,4.37
2023-04-07T23:36:48.506Z,3.90
2023-04-07T23:39:16.384Z,6.17
2023-04-07T23:41:44.275Z,4.97
2023-04-07T23:44:12.117Z,4.83
2023-04-07T23:46:41.362Z,4.33
2023-04-07T23:49:09.229Z,4.13
2023-04-07T23:51:37.097Z,4.00
2023-04-07T23:54:05.079Z,4.03
2023-04-07T23:56:33.414Z,3.87
2023-04-07T23:59:01.309Z,4.20
